createdAt,value
2023-04-16T00:06:05.130Z,7.6
2023-04-16T00:08:07.075Z,7.6
2023-04-16T00:10:09.065Z,7.6
2023-04-16T00:12:11.058Z,7.6
2023-04-16T00:14:13.017Z,7.7
2023-04-16T00:16:15.012Z,7.7
2023-04-16T00:18:16.988Z,7.7
2023-04-16T00:24:25.961Z,7.7
2023-04-16T00:29:32.434Z,7.7
2023-04-16T00:33:39.446Z,7.7
2023-04-16T00:35:41.408Z,7.7
2023-04-16T00:39:45.379Z,7.7
2023-04-16T00:41:47.334Z,7.7
2023-04-16T00:43:49.321Z,7.7
2023-04-16T00:45:51.337Z,7.7
2023-04-16T00:47:57.155Z,7.7
2023-04-16T00:49:58.304Z,7.7
2023-04-16T00:52:00.303Z,7.8
2023-04-16T00:54:02.278Z,7.7
2023-04-16T00:56:04.241Z,7.8
2023-04-16T00:58:06.252Z,7.8
2023-04-16T01:00:08.225Z,7.8
2023-04-16T01:02:13.281Z,7.8
2023-04-16T01:04:15.351Z,7.8
2023-04-16T01:06:17.204Z,7.8
2023-04-16T01:08:19.188Z,7.8
2023-04-16T01:10:21.188Z,7.8
2023-04-16T01:12:23.146Z,7.8
2023-04-16T01:14:25.126Z,7.8
2023-04-16T01:16:30.302Z,7.8
2023-04-16T01:18:32.126Z,7.8
2023-04-16T01:20:35.004Z,7.8
2023-04-16T01:21:36.627Z,7.8
2023-04-16T01:23:38.607Z,7.8
2023-04-16T01:25:40.634Z,7.8
2023-04-16T01:27:42.581Z,7.8
2023-04-16T01:31:49.679Z,7.8
2023-04-16T01:33:51.541Z,7.8
2023-04-16T01:35:53.523Z,7.9
2023-04-16T01:39:57.509Z,7.9
2023-04-16T01:44:04.517Z,7.9
2023-04-16T01:48:08.458Z,7.9
2023-04-16T01:54:14.399Z,7.8
2023-04-16T01:56:16.402Z,7.8
2023-04-16T01:58:21.431Z,7.8
2023-04-16T02:00:23.389Z,7.8
2023-04-16T02:08:31.312Z,7.9
2023-04-16T02:12:39.156Z,7.9
2023-04-16T02:14:41.171Z,7.9
2023-04-16T02:16:43.169Z,7.9
2023-04-16T02:17:45.649Z,7.9
2023-04-16T02:19:47.587Z,7.8
2023-04-16T02:34:04.464Z,7.9
2023-04-16T02:36:06.407Z,7.9
2023-04-16T02:38:08.389Z,7.9
2023-04-16T02:40:13.415Z,7.9
2023-04-16T02:42:15.408Z,7.9
2023-04-16T02:44:17.378Z,7.9
2023-04-16T02:48:21.296Z,7.9
2023-04-16T02:54:30.295Z,7.9
2023-04-16T02:56:32.273Z,7.9
2023-04-16T02:58:34.247Z,7.9
2023-04-16T03:00:36.211Z,7.9
2023-04-16T03:04:40.199Z,7.9
2023-04-16T03:06:42.136Z,7.9
2023-04-16T03:08:47.171Z,7.9
2023-04-16T03:10:49.156Z,7.9
2023-04-16T03:12:51.119Z,7.9
2023-04-16T03:17:10.102Z,7.9
2023-04-16T03:19:12.271Z,7.9
2023-04-16T03:21:17.136Z,7.9
2023-04-16T03:23:19.074Z,7.9
2023-04-16T03:29:24.997Z,7.9
2023-04-16T03:31:27.051Z,7.9
2023-04-16T03:35:34.000Z,7.9
2023-04-16T03:37:35.968Z,7.9
2023-04-16T03:39:37.935Z,7.9
2023-04-16T03:41:39.914Z,7.9
2023-04-16T03:43:41.897Z,7.9
2023-04-16T03:45:43.831Z,7.9
2023-04-16T03:47:45.868Z,7.9
2023-04-16T03:49:50.867Z,7.9
2023-04-16T03:51:52.806Z,7.9
2023-04-16T03:53:54.816Z,7.9
2023-04-16T03:55:56.765Z,7.9
2023-04-16T03:57:58.749Z,7.9
2023-04-16T04:00:00.737Z,7.9
2023-04-16T04:02:02.823Z,7.9
2023-04-16T04:06:09.695Z,7.9
2023-04-16T04:08:11.678Z,7.9
2023-04-16T04:09:14.173Z,7.9
2023-04-16T04:11:16.135Z,7.9
2023-04-16T04:13:18.148Z,8
2023-04-16T04:15:20.113Z,8
2023-04-16T04:17:25.148Z,7.9
2023-04-16T04:19:27.114Z,8
2023-04-16T04:23:31.049Z,8
2023-04-16T04:25:33.048Z,7.9
2023-04-16T04:29:36.967Z,8
2023-04-16T04:39:49.873Z,8
2023-04-16T04:41:52.525Z,8
2023-04-16T04:43:54.505Z,8
2023-04-16T04:45:59.517Z,7.9
2023-04-16T04:48:01.568Z,7.9
2023-04-16T04:50:03.470Z,7.9
2023-04-16T04:52:05.428Z,7.9
2023-04-16T04:54:07.405Z,7.9
2023-04-16T04:56:12.815Z,7.9
2023-04-16T05:02:19.927Z,7.8
2023-04-16T05:11:30.285Z,7.8
2023-04-16T05:13:35.311Z,7.8
2023-04-16T05:15:37.246Z,7.8
2023-04-16T05:17:39.296Z,7.9
2023-04-16T05:19:41.225Z,7.9
2023-04-16T05:21:43.193Z,7.9
2023-04-16T05:23:45.151Z,7.9
2023-04-16T05:25:47.127Z,7.9
2023-04-16T05:27:52.187Z,7.9
2023-04-16T05:29:54.157Z,7.9
2023-04-16T05:31:56.124Z,7.9
2023-04-16T05:33:58.115Z,7.9
2023-04-16T05:36:00.135Z,8
2023-04-16T05:38:02.059Z,8
2023-04-16T05:40:04.041Z,8
2023-04-16T05:42:09.047Z,8
2023-04-16T05:44:11.015Z,8.1
2023-04-16T05:46:13.035Z,8.1
2023-04-16T05:48:14.963Z,8.1
2023-04-16T05:52:18.927Z,8.1
2023-04-16T05:56:25.928Z,8.1
2023-04-16T05:58:27.896Z,8.1
2023-04-16T06:03:34.430Z,8.2
2023-04-16T06:05:36.532Z,8.2
2023-04-16T06:13:47.301Z,8.3
2023-04-16T06:15:49.340Z,8.4
2023-04-16T06:21:55.235Z,8.3
2023-04-16T06:24:00.251Z,8.2
2023-04-16T06:26:02.232Z,8.2
2023-04-16T06:28:04.221Z,8.2
2023-04-16T06:30:06.193Z,8.2
2023-04-16T06:32:08.203Z,8.2
2023-04-16T06:34:10.174Z,8.2
2023-04-16T06:36:12.124Z,8.2
2023-04-16T06:38:17.189Z,8.2
2023-04-16T06:40:19.132Z,8.2
2023-04-16T06:42:21.184Z,8.3
2023-04-16T06:44:23.138Z,8.3
2023-04-16T06:46:25.134Z,8.3
2023-04-16T06:48:27.087Z,8.3
2023-04-16T06:52:34.077Z,8.4
2023-04-16T06:54:36.056Z,8.4
2023-04-16T06:56:38.049Z,8.4
2023-04-16T06:59:00.676Z,8.5
2023-04-16T07:01:02.709Z,8.5
2023-04-16T07:03:04.718Z,8.4
2023-04-16T07:05:09.647Z,8.4
2023-04-16T07:07:11.630Z,8.5
2023-04-16T07:09:13.583Z,8.6
2023-04-16T07:11:15.572Z,8.6
2023-04-16T07:13:17.581Z,8.7
2023-04-16T07:17:21.529Z,8.7
2023-04-16T07:19:26.549Z,8.8
2023-04-16T07:23:30.524Z,8.8
2023-04-16T07:25:32.778Z,8.8
2023-04-16T07:27:34.480Z,8.8
2023-04-16T07:29:36.452Z,8.8
2023-04-16T07:31:38.518Z,8.8
2023-04-16T07:33:43.496Z,8.9
2023-04-16T07:35:45.460Z,8.9
2023-04-16T07:37:47.427Z,8.9
2023-04-16T07:39:49.434Z,9
2023-04-16T07:41:51.408Z,8.9
2023-04-16T07:43:53.406Z,9
2023-04-16T07:45:55.422Z,9
2023-04-16T07:48:00.458Z,8.9
2023-04-16T07:50:02.412Z,8.9
2023-04-16T07:52:04.383Z,8.9
2023-04-16T07:53:06.903Z,8.9
2023-04-16T07:57:10.868Z,9
2023-04-16T07:59:22.148Z,9
2023-04-16T08:01:17.896Z,9
2023-04-16T08:03:20.079Z,9
2023-04-16T08:05:21.976Z,9.1
2023-04-16T08:09:25.846Z,9.1
2023-04-16T08:11:27.785Z,9.2
2023-04-16T08:13:31.223Z,9.3
2023-04-16T08:15:34.870Z,9.4
2023-04-16T08:19:38.827Z,9.4
2023-04-16T08:23:42.770Z,9.7
2023-04-16T08:25:44.757Z,9.7
2023-04-16T08:27:46.732Z,9.8
2023-04-16T08:29:51.764Z,9.9
2023-04-16T08:31:53.829Z,9.9
2023-04-16T08:33:55.754Z,9.8
2023-04-16T08:35:57.725Z,9.9
2023-04-16T08:42:03.691Z,10.2
2023-04-16T08:44:08.746Z,10.2
2023-04-16T08:46:10.755Z,10.2
2023-04-16T08:48:12.709Z,10.3
2023-04-16T08:49:15.214Z,10.4
2023-04-16T08:53:19.195Z,10.6
2023-04-16T09:01:30.226Z,11
2023-04-16T09:03:34.826Z,11
2023-04-16T09:07:36.183Z,11.3
2023-04-16T09:09:38.154Z,11.3
2023-04-16T09:11:43.185Z,11.3
2023-04-16T09:19:51.150Z,11.9
2023-04-16T09:21:53.140Z,11.8
2023-04-16T09:26:00.176Z,11.9
2023-04-16T09:32:06.155Z,12.2
2023-04-16T09:34:08.148Z,12.4
2023-04-16T09:36:10.105Z,12.6
2023-04-16T09:38:12.120Z,12.6
2023-04-16T09:40:17.176Z,12.8
2023-04-16T09:42:19.146Z,12.7
2023-04-16T09:45:23.695Z,12.9
2023-04-16T09:47:25.687Z,12.9
2023-04-16T09:49:27.635Z,12.9
2023-04-16T09:51:29.637Z,12.8
2023-04-16T09:53:34.681Z,12.7
2023-04-16T09:55:36.665Z,12.9
2023-04-16T10:05:46.600Z,13.5
2023-04-16T10:09:53.627Z,13.9
2023-04-16T10:15:59.590Z,13.1
2023-04-16T10:22:08.594Z,13.2
2023-04-16T10:24:10.566Z,13.4
2023-04-16T10:26:12.569Z,13.4
2023-04-16T10:28:14.525Z,13.4
2023-04-16T10:30:16.537Z,13.4
2023-04-16T10:32:18.673Z,13.5
2023-04-16T10:38:27.520Z,13.8
2023-04-16T10:44:54.309Z,13.7
2023-04-16T10:49:02.767Z,13.7
2023-04-16T10:57:10.719Z,13.5
2023-04-16T11:07:23.647Z,13.3
2023-04-16T11:09:25.612Z,13.9
2023-04-16T11:27:46.494Z,14.4
2023-04-16T11:29:48.465Z,14.6
2023-04-16T11:31:53.487Z,14.3
2023-04-16T11:35:57.433Z,14.5
2023-04-16T11:36:59.956Z,14.4
2023-04-16T11:39:01.925Z,14.4
2023-04-16T11:41:03.899Z,14.3
2023-04-16T11:43:05.864Z,14.1
2023-04-16T11:57:22.729Z,14.9
2023-04-16T11:59:27.777Z,14.4
2023-04-16T12:01:29.750Z,14.4
2023-04-16T12:03:31.890Z,14.3
2023-04-16T12:05:35.942Z,14.3
2023-04-16T12:09:40.181Z,14.3
2023-04-16T12:11:39.603Z,14.1
2023-04-16T12:13:44.610Z,14.3
2023-04-16T12:15:46.610Z,14.3
2023-04-16T12:17:48.659Z,14.3
2023-04-16T12:19:50.540Z,14.2
2023-04-16T12:21:52.506Z,14.3
2023-04-16T12:23:54.495Z,14.4
2023-04-16T12:25:56.464Z,14.7
2023-04-16T12:28:01.580Z,14.6
2023-04-16T12:30:03.487Z,14.5
2023-04-16T12:32:05.454Z,14.5
2023-04-16T12:33:08.071Z,14.5
2023-04-16T12:39:13.905Z,14.3
2023-04-16T12:41:18.956Z,14.2
2023-04-16T12:43:20.905Z,14.1
2023-04-16T12:45:22.889Z,14.3
2023-04-16T12:47:24.879Z,14.3
2023-04-16T12:49:26.816Z,14.5
2023-04-16T12:51:28.810Z,15
2023-04-16T12:53:30.766Z,14.7
2023-04-16T13:07:47.673Z,14
2023-04-16T13:09:52.705Z,13.9
2023-04-16T13:11:54.677Z,13.9
2023-04-16T13:15:58.649Z,14.4
2023-04-16T13:18:00.652Z,14.3
2023-04-16T13:26:11.551Z,14
2023-04-16T13:28:13.543Z,14.2
2023-04-16T13:29:16.044Z,14.5
2023-04-16T13:31:18.067Z,14.4
2023-04-16T13:33:19.991Z,14.1
2023-04-16T13:35:21.975Z,14.2
2023-04-16T13:37:27.019Z,13.9
2023-04-16T13:39:29.022Z,13.9
2023-04-16T13:41:30.968Z,14.2
2023-04-16T13:43:32.938Z,14
2023-04-16T13:45:34.904Z,13.8
2023-04-16T13:49:38.881Z,13.3
2023-04-16T13:51:43.926Z,13
2023-04-16T13:53:45.899Z,12.9
2023-04-16T13:55:47.874Z,13
2023-04-16T13:59:51.832Z,13
2023-04-16T14:06:00.838Z,13.2
2023-04-16T14:12:06.780Z,13.1
2023-04-16T14:14:08.760Z,12.9
2023-04-16T14:18:12.742Z,12.8
2023-04-16T14:22:19.831Z,12.8
2023-04-16T14:26:38.825Z,13.1
2023-04-16T14:28:40.790Z,13.3
2023-04-16T14:32:47.874Z,14.1
2023-04-16T14:36:51.775Z,13.9
2023-04-16T14:38:53.779Z,13.7
2023-04-16T14:40:55.743Z,13.6
2023-04-16T14:42:57.730Z,13.6
2023-04-16T14:44:59.694Z,13.4
2023-04-16T14:53:10.704Z,13.3
2023-04-16T15:13:33.587Z,13.7
2023-04-16T15:20:45.114Z,13.6
2023-04-16T15:22:47.134Z,13.5
2023-04-16T15:24:49.081Z,13.2
2023-04-16T15:26:51.063Z,13.5
2023-04-16T15:28:56.132Z,13.4
2023-04-16T15:30:58.135Z,13.4
2023-04-16T15:33:00.165Z,13.3
2023-04-16T15:35:02.106Z,13.2
2023-04-16T15:37:04.060Z,13.2
2023-04-16T15:39:06.061Z,13
2023-04-16T15:41:08.028Z,13
2023-04-16T15:47:17.092Z,12.7
2023-04-16T15:51:21.053Z,12.5
2023-04-16T16:01:34.067Z,12.7
2023-04-16T16:03:36.209Z,12.6
2023-04-16T16:05:38.036Z,12.3
2023-04-16T16:09:42.005Z,12.5
2023-04-16T16:11:47.064Z,12.2
2023-04-16T16:13:49.056Z,12.1
2023-04-16T16:15:51.145Z,12.1
2023-04-16T16:16:53.557Z,12.2
2023-04-16T16:20:57.560Z,12.3
2023-04-16T16:22:59.533Z,12.3
2023-04-16T16:27:06.567Z,12
2023-04-16T16:31:10.624Z,11.8
2023-04-16T16:33:12.557Z,11.8
2023-04-16T16:43:27.056Z,11.8
2023-04-16T16:45:29.460Z,11.7
2023-04-16T16:49:33.065Z,11.7
2023-04-16T16:51:35.062Z,11.7
2023-04-16T16:53:40.101Z,12.1
2023-04-16T16:55:42.096Z,12.2
2023-04-16T16:57:44.084Z,12.3
2023-04-16T16:59:46.097Z,12
2023-04-16T17:01:48.092Z,12
2023-04-16T17:03:50.213Z,11.8
2023-04-16T17:05:52.073Z,11.6
2023-04-16T17:07:57.124Z,11.4
2023-04-16T17:10:01.369Z,11.5
2023-04-16T17:12:01.110Z,11.4
2023-04-16T17:13:03.649Z,11.5
2023-04-16T17:15:05.637Z,11.7
2023-04-16T17:17:07.622Z,12.2
2023-04-16T17:19:09.881Z,12.2
2023-04-16T17:21:16.489Z,11.9
2023-04-16T17:23:16.688Z,12.2
2023-04-16T17:25:18.667Z,12.3
2023-04-16T17:27:20.654Z,12.2
2023-04-16T17:29:22.630Z,11.9
2023-04-16T17:31:26.697Z,11.9
2023-04-16T17:33:26.630Z,11.8
2023-04-16T17:35:31.672Z,11.6
2023-04-16T17:37:33.658Z,11.4
2023-04-16T17:39:35.698Z,11.2
2023-04-16T17:41:37.670Z,11.2
2023-04-16T17:43:39.644Z,11.1
2023-04-16T17:45:41.695Z,11
2023-04-16T17:47:43.703Z,11.1
2023-04-16T17:49:48.700Z,11
2023-04-16T17:51:50.699Z,11
2023-04-16T17:53:52.684Z,11
2023-04-16T17:55:56.704Z,10.9
2023-04-16T17:59:58.689Z,10.8
2023-04-16T18:02:00.778Z,10.8
2023-04-16T18:04:06.027Z,10.7
2023-04-16T18:06:07.728Z,10.7
2023-04-16T18:10:33.106Z,10.6
2023-04-16T18:12:34.348Z,10.6
2023-04-16T18:14:36.333Z,10.6
2023-04-16T18:28:53.315Z,10.4
2023-04-16T18:30:59.185Z,10.4
2023-04-16T18:33:33.632Z,10.4
2023-04-16T18:37:04.354Z,10.4
2023-04-16T18:39:06.370Z,10.3
2023-04-16T18:41:08.313Z,10.3
2023-04-16T18:47:17.352Z,10.2
2023-04-16T18:49:19.338Z,10.2
2023-04-16T18:51:21.355Z,10.1
2023-04-16T18:57:27.312Z,10.2
2023-04-16T18:59:32.380Z,10.1
2023-04-16T19:01:34.368Z,10.1
2023-04-16T19:03:36.604Z,10.1
2023-04-16T19:08:42.865Z,10
2023-04-16T19:10:44.854Z,10
2023-04-16T19:12:49.919Z,10
2023-04-16T19:14:51.889Z,10
2023-04-16T19:16:53.897Z,10
2023-04-16T19:20:57.871Z,9.9
2023-04-16T19:27:06.943Z,9.9
2023-04-16T19:31:10.945Z,10
2023-04-16T19:33:12.885Z,10
2023-04-16T19:35:14.877Z,10
2023-04-16T19:37:16.857Z,10
2023-04-16T19:39:18.859Z,9.9
2023-04-16T19:41:23.898Z,9.9
2023-04-16T19:47:29.900Z,9.9
2023-04-16T19:49:33.754Z,9.9
2023-04-16T19:53:35.854Z,9.8
2023-04-16T19:55:40.902Z,9.7
2023-04-16T19:57:42.893Z,9.7
2023-04-16T19:59:44.886Z,9.7
2023-04-16T20:00:47.437Z,9.6
2023-04-16T20:02:49.629Z,9.6
2023-04-16T20:11:00.438Z,9.6
2023-04-16T20:23:15.429Z,9.4
2023-04-16T20:27:19.432Z,9.4
2023-04-16T20:31:23.532Z,9.3
2023-04-16T20:33:25.396Z,9.3
2023-04-16T20:35:27.400Z,9.3
2023-04-16T20:37:32.445Z,9.3
2023-04-16T20:39:34.449Z,9.2
2023-04-16T20:41:36.425Z,9.2
2023-04-16T20:43:38.501Z,9.2
2023-04-16T20:45:40.375Z,9.1
2023-04-16T20:47:42.430Z,9.2
2023-04-16T20:49:44.349Z,9.1
2023-04-16T20:51:49.405Z,9.1
2023-04-16T20:53:51.406Z,9.1
2023-04-16T20:55:53.389Z,9
2023-04-16T20:56:55.908Z,9
2023-04-16T21:03:02.020Z,9
2023-04-16T21:05:06.911Z,9
2023-04-16T21:11:12.872Z,9
2023-04-16T21:13:14.928Z,9
2023-04-16T21:15:16.880Z,8.9
2023-04-16T21:17:18.915Z,8.9
2023-04-16T21:19:23.905Z,8.9
2023-04-16T21:21:25.899Z,8.9
2023-04-16T21:23:27.880Z,8.9
2023-04-16T21:25:29.859Z,8.9
2023-04-16T21:29:33.850Z,8.9
2023-04-16T21:31:35.892Z,8.8
2023-04-16T21:33:40.891Z,8.8
2023-04-16T21:35:42.874Z,8.8
2023-04-16T21:37:44.833Z,8.6
2023-04-16T21:39:46.821Z,8.7
2023-04-16T21:41:48.849Z,8.7
2023-04-16T21:43:50.792Z,8.6
2023-04-16T21:45:52.793Z,8.6
2023-04-16T21:47:57.880Z,8.6
2023-04-16T21:49:59.805Z,8.6
2023-04-16T21:52:01.817Z,8.6
2023-04-16T22:08:41.295Z,8.5
2023-04-16T22:10:43.293Z,8.4
2023-04-16T22:12:45.276Z,8.5
2023-04-16T22:15:01.871Z,8.4
2023-04-16T22:20:56.282Z,8.4
2023-04-16T22:25:00.240Z,8.4
2023-04-16T22:29:07.227Z,8.4
2023-04-16T22:31:10.752Z,8.4
2023-04-16T22:33:12.789Z,8.3
2023-04-16T22:35:14.650Z,8.3
2023-04-16T22:37:16.642Z,8.2
2023-04-16T22:39:18.631Z,8.2
2023-04-16T22:41:20.603Z,8.2
2023-04-16T22:43:25.671Z,8.2
2023-04-16T22:45:27.637Z,8.2
2023-04-16T22:47:29.632Z,8.2
2023-04-16T22:48:32.111Z,8.2
2023-04-16T22:50:34.092Z,8.1
2023-04-16T22:54:38.064Z,8.1
2023-04-16T22:58:45.087Z,8
2023-04-16T23:15:04.023Z,8
2023-04-16T23:21:09.935Z,8
2023-04-16T23:23:11.946Z,8
2023-04-16T23:27:18.940Z,7.9
2023-04-16T23:29:20.916Z,7.9
2023-04-16T23:31:22.950Z,7.9
2023-04-16T23:33:25.665Z,7.9
2023-04-16T23:35:26.850Z,7.9
2023-04-16T23:37:28.840Z,7.9
2023-04-16T23:39:33.882Z,7.9
2023-04-16T23:41:35.822Z,7.9
2023-04-16T23:43:38.579Z,7.9
2023-04-16T23:44:40.336Z,7.9
2023-04-16T23:46:42.427Z,7.9
2023-04-16T23:48:44.285Z,7.9
2023-04-16T23:50:46.283Z,7.9
2023-04-16T23:54:53.269Z,7.9
2023-04-16T23:56:55.275Z,7.8
2023-04-16T23:58:57.694Z,7.8
